createdAt,value
2017-10-24T00:01:11.383Z,1.13
2017-10-24T00:03:38.378Z,1.70
2017-10-24T00:06:04.700Z,2.03
2017-10-24T00:08:31.004Z,2.50
2017-10-24T00:10:57.358Z,1.97
2017-10-24T00:13:24.404Z,2.27
2017-10-24T00:15:52.166Z,1.60
2017-10-24T00:18:19.144Z,2.00
2017-10-24T00:20:45.462Z,1.90
2017-10-24T00:23:12.499Z,2.00
2017-10-24T00:25:38.859Z,1.70
2017-10-24T00:28:05.915Z,2.00
2017-10-24T00:30:33.324Z,1.70
2017-10-24T00:32:59.691Z,1.20
2017-10-24T00:35:26.527Z,1.53
2017-10-24T00:37:53.391Z,1.50
2017-10-24T00:40:19.695Z,2.30
2017-10-24T00:42:46.023Z,1.57
2017-10-24T00:45:12.379Z,1.63
2017-10-24T00:47:39.163Z,1.53
2017-10-24T00:50:06.228Z,3.83
2017-10-24T00:52:32.899Z,6.13
2017-10-24T00:54:59.215Z,2.90
2017-10-24T00:57:25.535Z,2.90
2017-10-24T00:59:53.323Z,2.50
2017-10-24T01:02:19.655Z,2.40
2017-10-24T01:04:46.439Z,3.97
2017-10-24T01:07:12.739Z,2.40
2017-10-24T01:09:39.037Z,2.77
2017-10-24T01:12:05.395Z,2.07
2017-10-24T01:14:32.809Z,1.80
2017-10-24T01:17:00.459Z,3.23
2017-10-24T01:19:27.191Z,2.90
2017-10-24T01:21:53.583Z,3.00
2017-10-24T01:24:20.319Z,2.10
2017-10-24T01:26:46.679Z,1.80
2017-10-24T01:29:14.083Z,2.50
2017-10-24T01:31:40.491Z,3.93
2017-10-24T01:34:07.939Z,3.23
2017-10-24T01:36:35.026Z,3.93
2017-10-24T01:39:01.371Z,1.80
2017-10-24T01:41:28.175Z,2.90
2017-10-24T01:43:55.262Z,3.60
2017-10-24T01:46:21.943Z,6.70
2017-10-24T01:48:48.619Z,4.93
2017-10-24T01:51:16.137Z,4.63
2017-10-24T01:53:42.495Z,4.43
2017-10-24T01:56:08.799Z,4.47
2017-10-24T01:58:35.180Z,3.13
2017-10-24T02:01:01.533Z,3.13
2017-10-24T02:03:28.483Z,5.50
2017-10-24T02:05:55.547Z,4.03
2017-10-24T02:08:21.907Z,3.10
2017-10-24T02:10:48.739Z,3.60
2017-10-24T02:13:15.078Z,3.10
2017-10-24T02:15:41.429Z,3.20
2017-10-24T02:18:08.215Z,2.40
2017-10-24T02:20:35.124Z,3.50
2017-10-24T02:23:01.466Z,3.60
2017-10-24T02:25:28.379Z,2.97
2017-10-24T02:27:55.442Z,4.50
2017-10-24T02:30:21.771Z,5.40
2017-10-24T02:32:48.863Z,5.40
2017-10-24T02:35:15.531Z,4.13
2017-10-24T02:37:41.831Z,4.63
2017-10-24T02:40:08.147Z,3.60
2017-10-24T02:42:34.518Z,3.20
2017-10-24T02:45:01.251Z,4.07
2017-10-24T02:47:28.027Z,3.80
2017-10-24T02:49:54.348Z,3.40
2017-10-24T02:52:21.155Z,3.40
2017-10-24T02:54:47.501Z,2.30
2017-10-24T02:57:13.850Z,3.40
2017-10-24T02:59:40.219Z,3.37
2017-10-24T03:02:06.524Z,3.30
2017-10-24T03:04:33.467Z,2.80
2017-10-24T03:06:59.779Z,2.40
2017-10-24T03:09:27.209Z,2.60
2017-10-24T03:11:54.143Z,2.50
2017-10-24T03:14:20.459Z,3.17
2017-10-24T03:16:46.786Z,4.07
2017-10-24T03:19:13.571Z,1.80
2017-10-24T03:21:39.903Z,1.70
2017-10-24T03:24:06.716Z,3.80
2017-10-24T03:26:33.057Z,3.70
2017-10-24T03:28:59.387Z,3.07
2017-10-24T03:31:26.067Z,4.50
2017-10-24T03:33:53.097Z,3.10
2017-10-24T03:36:19.412Z,3.33
2017-10-24T03:38:45.700Z,3.47
2017-10-24T03:41:12.051Z,2.50
2017-10-24T03:43:38.341Z,2.67
2017-10-24T03:46:05.196Z,1.70
2017-10-24T03:48:31.826Z,2.00
2017-10-24T03:50:58.164Z,1.97
2017-10-24T03:53:24.458Z,1.43
2017-10-24T03:55:51.635Z,2.03
2017-10-24T03:58:17.931Z,2.20
2017-10-24T04:00:44.354Z,2.03
2017-10-24T04:03:10.879Z,2.93
2017-10-24T04:05:37.866Z,3.07
2017-10-24T04:08:04.509Z,3.10
2017-10-24T04:10:30.814Z,2.80
2017-10-24T04:12:57.443Z,2.07
2017-10-24T04:15:23.770Z,2.50
2017-10-24T04:17:50.540Z,2.03
2017-10-24T04:20:17.275Z,1.67
2017-10-24T04:22:44.035Z,1.83
2017-10-24T04:25:10.364Z,1.50
2017-10-24T04:27:36.684Z,2.10
2017-10-24T04:30:03.164Z,2.93
2017-10-24T04:32:31.049Z,3.70
2017-10-24T04:34:57.715Z,2.47
2017-10-24T04:37:24.797Z,2.30
2017-10-24T04:39:51.119Z,1.93
2017-10-24T04:42:17.707Z,2.63
2017-10-24T04:44:44.439Z,2.30
2017-10-24T04:47:11.303Z,2.20
2017-10-24T04:49:38.268Z,2.33
2017-10-24T04:52:05.766Z,1.10
2017-10-24T04:54:32.464Z,1.93
2017-10-24T04:56:59.276Z,1.50
2017-10-24T04:59:25.969Z,1.53
2017-10-24T05:01:52.734Z,1.73
2017-10-24T05:04:20.270Z,2.23
2017-10-24T05:06:46.572Z,1.80
2017-10-24T05:09:12.879Z,2.07
2017-10-24T05:11:39.225Z,2.30
2017-10-24T05:14:05.527Z,2.67
2017-10-24T05:16:31.913Z,2.83
2017-10-24T05:18:58.745Z,2.70
2017-10-24T05:21:25.071Z,12.70
2017-10-24T05:23:52.115Z,7.20
2017-10-24T05:26:19.754Z,5.30
2017-10-24T05:28:46.905Z,3.70
2017-10-24T05:31:13.776Z,2.57
2017-10-24T05:33:40.831Z,2.90
2017-10-24T05:36:08.347Z,4.20
2017-10-24T05:38:34.672Z,3.43
2017-10-24T05:41:01.367Z,3.93
2017-10-24T05:43:27.658Z,5.93
2017-10-24T05:45:53.972Z,7.20
2017-10-24T05:48:20.322Z,4.53
2017-10-24T05:50:46.619Z,4.93
2017-10-24T05:53:13.758Z,5.60
2017-10-24T05:55:40.103Z,3.33
2017-10-24T05:58:07.618Z,3.73
2017-10-24T06:00:33.937Z,4.37
2017-10-24T06:03:00.695Z,6.03
2017-10-24T06:05:27.511Z,7.27
2017-10-24T06:07:55.113Z,4.63
2017-10-24T06:10:21.406Z,7.03
2017-10-24T06:12:48.455Z,6.00
2017-10-24T06:15:16.153Z,4.90
2017-10-24T06:17:43.307Z,5.00
2017-10-24T06:20:09.639Z,3.50
2017-10-24T06:22:35.929Z,3.40
2017-10-24T06:25:02.391Z,4.27
2017-10-24T06:27:29.898Z,4.67
2017-10-24T06:29:56.576Z,7.67
2017-10-24T06:32:22.879Z,5.70
2017-10-24T06:34:49.643Z,7.40
2017-10-24T06:37:15.975Z,9.37
2017-10-24T06:39:42.897Z,11.53
2017-10-24T06:42:09.228Z,6.63
2017-10-24T06:44:35.982Z,5.10
2017-10-24T06:47:02.299Z,5.50
2017-10-24T06:49:28.607Z,20.70
2017-10-24T06:51:55.063Z,13.53
2017-10-24T06:54:22.559Z,9.13
2017-10-24T06:56:48.867Z,6.80
2017-10-24T06:59:16.426Z,5.40
2017-10-24T07:01:43.459Z,5.80
2017-10-24T07:04:09.804Z,12.53
2017-10-24T07:06:37.219Z,8.93
2017-10-24T07:09:03.627Z,5.20
2017-10-24T07:11:29.967Z,3.00
2017-10-24T07:13:56.740Z,2.20
2017-10-24T07:16:23.043Z,2.63
2017-10-24T07:18:49.798Z,3.40
2017-10-24T07:21:16.115Z,2.87
2017-10-24T07:23:43.183Z,3.30
2017-10-24T07:26:09.868Z,2.33
2017-10-24T07:28:36.541Z,4.60
2017-10-24T07:31:03.406Z,5.03
2017-10-24T07:33:30.842Z,3.90
2017-10-24T07:35:57.625Z,4.47
2017-10-24T07:38:24.279Z,5.17
2017-10-24T07:40:51.015Z,3.93
2017-10-24T07:43:17.979Z,3.10
2017-10-24T07:45:44.812Z,4.73
2017-10-24T07:48:11.582Z,4.70
2017-10-24T07:50:38.365Z,3.10
2017-10-24T07:53:05.105Z,5.53
2017-10-24T07:55:31.819Z,5.50
2017-10-24T07:57:58.892Z,4.40
2017-10-24T08:00:25.726Z,4.40
2017-10-24T08:02:52.447Z,5.03
2017-10-24T08:05:19.180Z,5.50
2017-10-24T08:07:46.791Z,4.73
2017-10-24T08:10:13.531Z,4.17
2017-10-24T08:12:40.351Z,4.10
2017-10-24T08:15:06.987Z,3.80
2017-10-24T08:17:33.753Z,5.20
2017-10-24T08:20:00.600Z,3.10
2017-10-24T08:22:27.292Z,2.67
2017-10-24T08:24:54.237Z,2.67
2017-10-24T08:27:21.078Z,3.40
2017-10-24T08:29:47.838Z,3.80
2017-10-24T08:32:14.882Z,7.60
2017-10-24T08:34:42.475Z,6.10
2017-10-24T08:37:10.078Z,4.60
2017-10-24T08:39:36.833Z,5.00
2017-10-24T08:42:03.586Z,6.60
2017-10-24T08:44:29.900Z,3.43
2017-10-24T08:46:56.207Z,2.63
2017-10-24T08:49:23.291Z,3.87
2017-10-24T08:51:49.599Z,4.90
2017-10-24T08:54:17.018Z,3.50
2017-10-24T08:56:43.398Z,4.43
2017-10-24T08:59:10.927Z,5.27
2017-10-24T09:01:37.275Z,5.33
2017-10-24T09:04:03.641Z,6.37
2017-10-24T09:06:30.551Z,6.80
2017-10-24T09:09:20.894Z,5.17
2017-10-24T09:11:56.593Z,5.70
2017-10-24T09:14:23.957Z,6.73
2017-10-24T09:16:53.276Z,4.40
2017-10-24T09:19:42.879Z,5.40
2017-10-24T09:22:20.023Z,4.83
2017-10-24T09:24:48.035Z,3.30
2017-10-24T09:27:14.881Z,4.60
2017-10-24T09:29:41.198Z,4.67
2017-10-24T09:32:08.237Z,8.20
2017-10-24T09:34:35.927Z,3.67
2017-10-24T09:37:02.273Z,5.90
2017-10-24T09:39:28.630Z,4.50
2017-10-24T09:41:55.539Z,5.57
2017-10-24T09:44:21.890Z,5.03
2017-10-24T09:46:48.220Z,3.57
2017-10-24T09:49:14.593Z,3.40
2017-10-24T09:51:43.182Z,4.40
2017-10-24T09:54:09.517Z,4.90
2017-10-24T09:56:45.699Z,15.57
2017-10-24T09:59:14.393Z,5.77
2017-10-24T10:01:47.641Z,5.00
2017-10-24T10:04:15.279Z,4.73
2017-10-24T10:07:01.470Z,3.70
2017-10-24T10:09:27.833Z,3.23
2017-10-24T10:11:54.226Z,5.13
2017-10-24T10:14:22.374Z,4.63
2017-10-24T10:16:48.783Z,4.83
2017-10-24T10:19:15.442Z,4.53
2017-10-24T10:21:42.535Z,3.90
2017-10-24T10:24:17.738Z,3.70
2017-10-24T10:26:44.118Z,5.00
2017-10-24T10:29:11.634Z,5.73
2017-10-24T10:31:37.981Z,4.53
2017-10-24T10:34:04.808Z,4.47
2017-10-24T10:36:31.126Z,3.60
2017-10-24T10:38:57.480Z,3.70
2017-10-24T10:41:24.175Z,4.73
2017-10-24T10:43:50.503Z,4.00
2017-10-24T10:46:16.846Z,4.13
2017-10-24T10:48:43.192Z,3.40
2017-10-24T10:51:10.593Z,3.80
2017-10-24T10:53:36.891Z,3.90
2017-10-24T10:56:04.011Z,3.00
2017-10-24T10:58:31.101Z,3.23
2017-10-24T11:00:58.174Z,3.27
2017-10-24T11:03:24.958Z,4.20
2017-10-24T11:05:51.920Z,4.20
2017-10-24T11:08:18.236Z,5.17
2017-10-24T11:10:44.559Z,5.07
2017-10-24T11:13:10.890Z,9.07
2017-10-24T11:15:37.210Z,4.47
2017-10-24T11:18:04.166Z,3.60
2017-10-24T11:20:30.460Z,2.70
2017-10-24T11:22:57.868Z,2.90
2017-10-24T11:25:24.172Z,2.47
2017-10-24T11:27:51.660Z,3.00
2017-10-24T11:30:17.958Z,3.60
2017-10-24T11:32:44.614Z,2.83
2017-10-24T11:35:11.419Z,2.80
2017-10-24T11:37:37.717Z,2.30
2017-10-24T11:40:04.055Z,2.63
2017-10-24T11:42:30.395Z,2.30
2017-10-24T11:44:56.719Z,2.13
2017-10-24T11:47:24.258Z,2.00
2017-10-24T11:49:50.587Z,2.80
2017-10-24T11:52:17.271Z,2.10
2017-10-24T11:54:44.012Z,2.20
2017-10-24T11:57:10.387Z,2.40
2017-10-24T11:59:37.370Z,2.73
2017-10-24T12:02:04.303Z,1.90
2017-10-24T12:04:30.631Z,2.20
2017-10-24T12:06:57.543Z,3.10
2017-10-24T12:09:23.872Z,2.60
2017-10-24T12:11:50.980Z,2.10
2017-10-24T12:14:17.920Z,2.60
2017-10-24T12:16:44.251Z,2.90
2017-10-24T12:19:11.163Z,2.67
2017-10-24T12:21:37.955Z,2.20
2017-10-24T12:24:04.907Z,1.80
2017-10-24T12:26:31.212Z,1.90
2017-10-24T12:28:57.540Z,1.63
2017-10-24T12:31:23.979Z,1.23
2017-10-24T12:33:50.298Z,1.70
2017-10-24T12:36:18.182Z,2.40
2017-10-24T12:38:44.524Z,1.80
2017-10-24T12:41:10.876Z,1.70
2017-10-24T12:43:37.252Z,1.90
2017-10-24T12:46:14.359Z,1.40
2017-10-24T12:48:43.535Z,1.50
2017-10-24T12:51:09.877Z,1.40
2017-10-24T12:53:36.195Z,1.60
2017-10-24T12:56:02.567Z,1.90
2017-10-24T12:58:45.931Z,1.20
2017-10-24T13:01:12.575Z,1.30
2017-10-24T13:03:38.916Z,1.60
2017-10-24T13:06:05.792Z,1.50
2017-10-24T13:08:32.082Z,2.10
2017-10-24T13:10:58.431Z,2.00
2017-10-24T13:13:25.236Z,1.60
2017-10-24T13:15:52.331Z,1.83
2017-10-24T13:18:19.020Z,1.30
2017-10-24T13:20:45.323Z,2.03
2017-10-24T13:23:12.188Z,1.50
2017-10-24T13:25:38.491Z,1.10
2017-10-24T13:28:04.785Z,2.90
2017-10-24T13:30:31.869Z,2.97
2017-10-24T13:32:58.646Z,2.00
2017-10-24T13:35:25.436Z,1.40
2017-10-24T13:37:52.484Z,0.90
2017-10-24T13:40:19.518Z,1.00
2017-10-24T13:42:46.190Z,1.17
2017-10-24T13:45:13.641Z,1.00
2017-10-24T13:47:39.962Z,1.10
2017-10-24T13:50:06.268Z,2.57
2017-10-24T13:52:32.883Z,1.40
2017-10-24T13:54:59.180Z,1.30
2017-10-24T13:57:26.179Z,3.00
2017-10-24T13:59:52.846Z,1.90
2017-10-24T14:02:19.190Z,1.70
2017-10-24T14:04:51.443Z,2.30
2017-10-24T14:07:24.251Z,2.53
2017-10-24T14:09:57.835Z,1.50
2017-10-24T14:12:24.723Z,1.40
2017-10-24T14:14:51.031Z,1.20
2017-10-24T14:17:17.882Z,1.33
2017-10-24T14:19:44.208Z,1.00
2017-10-24T14:22:10.514Z,2.17
2017-10-24T14:24:37.432Z,1.37
2017-10-24T14:27:05.051Z,2.10
2017-10-24T14:29:31.353Z,1.30
2017-10-24T14:31:58.680Z,0.90
2017-10-24T14:34:25.586Z,1.00
2017-10-24T14:36:52.338Z,1.10
2017-10-24T14:39:18.643Z,1.00
2017-10-24T14:41:45.451Z,1.10
2017-10-24T14:44:11.765Z,1.10
2017-10-24T14:46:38.075Z,1.00
2017-10-24T14:49:04.518Z,0.90
2017-10-24T14:51:30.830Z,1.00
2017-10-24T14:53:58.581Z,1.20
2017-10-24T14:56:25.242Z,0.90
2017-10-24T14:58:52.945Z,2.07
2017-10-24T15:01:19.266Z,1.80
2017-10-24T15:03:45.569Z,1.17
2017-10-24T15:06:12.350Z,1.10
2017-10-24T15:08:38.658Z,1.10
2017-10-24T15:11:05.697Z,26.43
2017-10-24T15:13:32.040Z,19.80
2017-10-24T15:15:58.374Z,3.93
2017-10-24T15:18:25.249Z,1.40
2017-10-24T15:20:51.572Z,1.00
2017-10-24T15:23:18.622Z,1.10
2017-10-24T15:25:46.917Z,0.97
2017-10-24T15:28:14.300Z,1.07
2017-10-24T15:30:40.616Z,1.53
2017-10-24T15:33:06.954Z,1.03
2017-10-24T15:35:33.708Z,0.97
2017-10-24T15:38:00.704Z,1.00
2017-10-24T15:40:27.004Z,0.90
2017-10-24T15:42:53.936Z,1.20
2017-10-24T15:45:20.239Z,1.20
2017-10-24T15:47:46.610Z,0.90
2017-10-24T15:50:13.597Z,1.00
2017-10-24T15:52:40.315Z,1.20
2017-10-24T15:55:07.115Z,1.53
2017-10-24T15:57:33.429Z,1.90
2017-10-24T16:00:00.410Z,2.03
2017-10-24T16:02:26.762Z,1.60
2017-10-24T16:04:54.267Z,1.27
2017-10-24T16:07:21.078Z,4.47
2017-10-24T16:09:48.138Z,14.60
2017-10-24T16:12:14.439Z,4.47
2017-10-24T16:14:40.782Z,2.83
2017-10-24T16:17:07.479Z,1.93
2017-10-24T16:19:34.289Z,1.90
2017-10-24T16:22:01.730Z,1.90
2017-10-24T16:24:28.103Z,1.90
2017-10-24T16:26:54.964Z,2.70
2017-10-24T16:29:21.309Z,1.90
2017-10-24T16:31:48.107Z,2.03
2017-10-24T16:34:14.827Z,4.80
2017-10-24T16:36:41.549Z,2.43
2017-10-24T16:39:07.870Z,1.63
2017-10-24T16:41:35.485Z,1.60
2017-10-24T16:44:01.829Z,1.60
2017-10-24T16:46:28.626Z,1.53
2017-10-24T16:48:55.651Z,13.00
2017-10-24T16:51:23.331Z,11.80
2017-10-24T16:53:49.667Z,6.93
2017-10-24T16:56:16.468Z,5.00
2017-10-24T16:58:43.138Z,2.97
2017-10-24T17:01:10.205Z,1.90
2017-10-24T17:03:37.869Z,2.07
2017-10-24T17:06:04.919Z,1.40
2017-10-24T17:08:32.358Z,1.33
2017-10-24T17:10:58.675Z,2.57
2017-10-24T17:13:24.998Z,2.83
2017-10-24T17:15:51.664Z,2.40
2017-10-24T17:18:18.599Z,2.63
2017-10-24T17:20:45.331Z,3.80
2017-10-24T17:23:11.671Z,3.10
2017-10-24T17:25:38.587Z,2.13
2017-10-24T17:28:04.907Z,2.27
2017-10-24T17:30:31.987Z,2.00
2017-10-24T17:32:58.783Z,2.60
2017-10-24T17:35:25.604Z,3.00
2017-10-24T17:37:51.952Z,2.00
2017-10-24T17:40:18.351Z,1.97
2017-10-24T17:42:44.684Z,2.90
2017-10-24T17:45:11.303Z,2.40
2017-10-24T17:47:38.996Z,2.50
2017-10-24T17:50:05.961Z,3.10
2017-10-24T17:52:32.859Z,3.73
2017-10-24T17:54:59.718Z,3.30
2017-10-24T17:57:26.765Z,2.50
2017-10-24T17:59:53.078Z,1.60
2017-10-24T18:02:19.672Z,1.40
2017-10-24T18:04:45.995Z,1.53
2017-10-24T18:07:13.659Z,1.20
2017-10-24T18:09:40.734Z,1.20
2017-10-24T18:12:07.072Z,1.40
2017-10-24T18:14:33.443Z,2.73
2017-10-24T18:16:59.755Z,7.63
2017-10-24T18:19:26.672Z,8.37
2017-10-24T18:21:54.188Z,6.30
2017-10-24T18:24:20.500Z,9.50
2017-10-24T18:26:46.815Z,6.30
2017-10-24T18:29:13.951Z,5.50
2017-10-24T18:31:41.376Z,5.67
2017-10-24T18:34:08.274Z,10.10
2017-10-24T18:36:35.659Z,8.60
2017-10-24T18:39:02.006Z,6.13
2017-10-24T18:41:28.716Z,4.10
2017-10-24T18:43:55.843Z,3.20
2017-10-24T18:46:22.748Z,3.63
2017-10-24T18:48:49.588Z,4.47
2017-10-24T18:51:16.581Z,5.80
2017-10-24T18:53:43.339Z,4.20
2017-10-24T18:56:10.005Z,3.50
2017-10-24T18:58:37.075Z,3.20
2017-10-24T19:01:03.449Z,4.03
2017-10-24T19:03:29.815Z,3.60
2017-10-24T19:05:56.487Z,2.90
2017-10-24T19:08:24.043Z,3.87
2017-10-24T19:10:51.136Z,3.30
2017-10-24T19:13:17.499Z,1.67
2017-10-24T19:15:43.855Z,5.77
2017-10-24T19:18:10.787Z,5.90
2017-10-24T19:20:37.611Z,5.67
2017-10-24T19:23:03.917Z,7.43
2017-10-24T19:25:30.266Z,6.03
2017-10-24T19:27:56.982Z,4.90
2017-10-24T19:30:23.372Z,7.13
2017-10-24T19:32:49.689Z,5.90
2017-10-24T19:35:16.548Z,4.63
2017-10-24T19:37:42.858Z,4.03
2017-10-24T19:40:09.572Z,4.40
2017-10-24T19:42:36.295Z,6.37
2017-10-24T19:45:02.616Z,4.27
2017-10-24T19:47:28.908Z,3.97
2017-10-24T19:49:55.985Z,5.03
2017-10-24T19:52:22.946Z,4.80
2017-10-24T19:54:49.243Z,20.20
2017-10-24T19:57:16.620Z,4.63
2017-10-24T19:59:43.003Z,2.63
2017-10-24T20:02:09.651Z,2.90
2017-10-24T20:04:35.980Z,2.90
2017-10-24T20:07:02.863Z,1.53
2017-10-24T20:09:30.395Z,1.50
2017-10-24T20:11:56.716Z,1.57
2017-10-24T20:14:23.016Z,1.83
2017-10-24T20:16:50.580Z,1.53
2017-10-24T20:19:18.265Z,1.30
2017-10-24T20:21:45.232Z,1.20
2017-10-24T20:24:11.551Z,1.33
2017-10-24T20:26:38.605Z,1.27
2017-10-24T20:29:05.499Z,1.43
2017-10-24T20:31:32.271Z,1.53
2017-10-24T20:33:59.788Z,1.57
2017-10-24T20:36:26.107Z,1.53
2017-10-24T20:38:52.773Z,1.73
2017-10-24T20:41:19.588Z,1.70
2017-10-24T20:43:45.879Z,1.40
2017-10-24T20:46:12.190Z,1.70
2017-10-24T20:48:38.549Z,1.50
2017-10-24T20:51:04.867Z,1.90
2017-10-24T20:53:31.288Z,1.20
2017-10-24T20:55:57.630Z,1.53
2017-10-24T20:58:24.551Z,1.60
2017-10-24T21:00:50.890Z,1.60
2017-10-24T21:03:17.219Z,1.73
2017-10-24T21:05:43.572Z,1.67
2017-10-24T21:08:10.407Z,1.73
2017-10-24T21:10:36.729Z,1.70
2017-10-24T21:13:03.783Z,1.70
2017-10-24T21:15:31.322Z,1.60
2017-10-24T21:17:58.236Z,1.40
2017-10-24T21:20:24.550Z,1.40
2017-10-24T21:22:51.292Z,1.60
2017-10-24T21:25:18.301Z,1.40
2017-10-24T21:27:44.970Z,1.70
2017-10-24T21:30:12.015Z,1.60
2017-10-24T21:32:39.047Z,1.60
2017-10-24T21:35:05.819Z,1.57
2017-10-24T21:37:33.319Z,1.23
2017-10-24T21:39:59.630Z,1.40
2017-10-24T21:42:25.919Z,1.30
2017-10-24T21:44:52.261Z,1.30
2017-10-24T21:47:18.913Z,1.20
2017-10-24T21:49:45.217Z,1.20
2017-10-24T21:52:11.901Z,1.50
2017-10-24T21:54:38.228Z,1.33
2017-10-24T21:57:05.755Z,1.40
2017-10-24T21:59:32.561Z,1.40
2017-10-24T22:02:00.109Z,1.50
2017-10-24T22:04:26.410Z,1.40
2017-10-24T22:06:52.718Z,1.40
2017-10-24T22:09:19.540Z,1.20
2017-10-24T22:11:46.910Z,1.50
2017-10-24T22:14:13.975Z,1.20
2017-10-24T22:16:40.287Z,1.20
2017-10-24T22:19:07.703Z,1.13
2017-10-24T22:21:34.455Z,1.43
2017-10-24T22:24:00.764Z,1.60
2017-10-24T22:26:27.531Z,1.40
2017-10-24T22:28:53.861Z,1.37
2017-10-24T22:31:20.708Z,1.30
2017-10-24T22:33:47.043Z,1.30
2017-10-24T22:36:13.803Z,1.03
2017-10-24T22:38:40.531Z,1.20
2017-10-24T22:41:06.827Z,1.20
2017-10-24T22:43:33.865Z,1.33
2017-10-24T22:46:00.956Z,1.20
2017-10-24T22:48:27.255Z,1.10
2017-10-24T22:50:53.683Z,1.17
2017-10-24T22:53:20.025Z,1.40
2017-10-24T22:55:46.326Z,1.33
2017-10-24T22:58:13.324Z,1.00
2017-10-24T23:00:40.991Z,1.13
2017-10-24T23:03:08.030Z,1.07
2017-10-24T23:05:34.346Z,1.30
2017-10-24T23:08:01.121Z,1.20
2017-10-24T23:10:27.449Z,1.30
2017-10-24T23:12:53.761Z,1.20
2017-10-24T23:15:20.945Z,1.10
2017-10-24T23:17:47.749Z,1.47
2017-10-24T23:20:14.494Z,1.57
2017-10-24T23:22:40.790Z,1.23
2017-10-24T23:25:07.836Z,1.20
2017-10-24T23:27:34.524Z,1.20
2017-10-24T23:30:01.475Z,1.20
2017-10-24T23:32:28.364Z,1.33
2017-10-24T23:34:55.279Z,1.20
2017-10-24T23:37:21.581Z,1.00
2017-10-24T23:39:47.891Z,1.20
2017-10-24T23:42:14.223Z,1.10
2017-10-24T23:44:40.559Z,1.30
2017-10-24T23:47:06.958Z,1.17
2017-10-24T23:49:33.294Z,1.10
2017-10-24T23:52:00.085Z,1.03
2017-10-24T23:54:26.387Z,1.30
2017-10-24T23:56:52.670Z,1.20
2017-10-24T23:59:19.866Z,1.00
